createdAt,value
2023-04-20T00:00:34.464Z,8.37
2023-04-20T00:01:34.498Z,8.37
2023-04-20T00:02:34.530Z,8.38
2023-04-20T00:03:34.629Z,8.39
2023-04-20T00:04:35.958Z,8.37
2023-04-20T00:05:34.621Z,8.35
2023-04-20T00:06:34.552Z,8.32
2023-04-20T00:07:34.786Z,8.32
2023-04-20T00:08:34.837Z,8.31
2023-04-20T00:09:34.878Z,8.32
2023-04-20T00:10:34.399Z,8.32
2023-04-20T00:11:34.409Z,8.32
2023-04-20T00:12:35.043Z,8.35
2023-04-20T00:13:34.402Z,8.37
2023-04-20T00:14:34.373Z,8.34
2023-04-20T00:15:34.388Z,8.32
2023-04-20T00:16:34.479Z,8.28
2023-04-20T00:17:34.376Z,8.32
2023-04-20T00:18:34.361Z,8.28
2023-04-20T00:19:35.786Z,8.28
2023-04-20T00:20:35.827Z,8.24
2023-04-20T00:21:34.511Z,8.21
2023-04-20T00:22:34.646Z,8.19
2023-04-20T00:23:34.695Z,8.21
2023-04-20T00:24:34.429Z,8.17
2023-04-20T00:25:34.327Z,8.21
2023-04-20T00:26:34.310Z,8.19
2023-04-20T00:27:34.279Z,8.23
2023-04-20T00:28:34.648Z,8.19
2023-04-20T00:29:34.380Z,8.21
2023-04-20T00:30:35.072Z,8.21
2023-04-20T00:31:34.522Z,8.20
2023-04-20T00:32:34.281Z,8.20
2023-04-20T00:33:34.246Z,8.23
2023-04-20T00:34:35.862Z,8.20
2023-04-20T00:35:35.695Z,8.16
2023-04-20T00:36:35.903Z,8.12
2023-04-20T00:37:34.208Z,8.06
2023-04-20T00:38:35.684Z,8.06
2023-04-20T00:39:34.281Z,8.01
2023-04-20T00:40:34.358Z,8.01
2023-04-20T00:41:34.366Z,7.98
2023-04-20T00:42:34.186Z,7.88
2023-04-20T00:43:35.641Z,7.86
2023-04-20T00:44:35.620Z,7.83
2023-04-20T00:45:34.456Z,7.80
2023-04-20T00:46:34.161Z,7.80
2023-04-20T00:47:34.182Z,7.78
2023-04-20T00:48:35.607Z,7.77
2023-04-20T00:49:34.519Z,7.77
2023-04-20T00:50:34.144Z,7.78
2023-04-20T00:51:34.642Z,7.80
2023-04-20T00:52:34.809Z,7.80
2023-04-20T00:53:34.928Z,7.84
2023-04-20T00:54:34.089Z,7.84
2023-04-20T00:55:35.537Z,7.88
2023-04-20T00:56:34.104Z,7.87
2023-04-20T00:57:34.089Z,7.92
2023-04-20T00:58:34.068Z,7.87
2023-04-20T00:59:34.055Z,7.88
2023-04-20T01:00:34.113Z,7.86
2023-04-20T01:01:34.186Z,7.81
2023-04-20T01:02:34.317Z,7.83
2023-04-20T01:03:34.430Z,7.80
2023-04-20T01:04:34.076Z,7.78
2023-04-20T01:05:34.065Z,7.77
2023-04-20T01:06:34.087Z,7.71
2023-04-20T01:07:34.006Z,7.71
2023-04-20T01:08:34.053Z,7.71
2023-04-20T01:09:34.038Z,7.68
2023-04-20T01:10:33.982Z,7.62
2023-04-20T01:11:34.077Z,7.64
2023-04-20T01:12:33.982Z,7.68
2023-04-20T01:13:34.081Z,7.64
2023-04-20T01:14:33.959Z,7.69
2023-04-20T01:15:33.958Z,7.66
2023-04-20T01:16:34.079Z,7.68
2023-04-20T01:17:34.039Z,7.69
2023-04-20T01:18:33.937Z,7.69
2023-04-20T01:19:34.001Z,7.73
2023-04-20T01:20:34.167Z,7.69
2023-04-20T01:21:33.983Z,7.69
2023-04-20T01:22:34.203Z,7.69
2023-04-20T01:23:34.223Z,7.69
2023-04-20T01:24:34.158Z,7.66
2023-04-20T01:25:34.240Z,7.68
2023-04-20T01:26:34.260Z,7.64
2023-04-20T01:27:35.345Z,7.68
2023-04-20T01:28:34.285Z,7.66
2023-04-20T01:29:33.944Z,7.68
2023-04-20T01:30:34.315Z,7.71
2023-04-20T01:31:33.907Z,7.74
2023-04-20T01:32:33.945Z,7.74
2023-04-20T01:33:33.844Z,7.73
2023-04-20T01:34:33.844Z,7.71
2023-04-20T01:35:34.374Z,7.69
2023-04-20T01:36:33.841Z,7.68
2023-04-20T01:37:34.160Z,7.64
2023-04-20T01:38:33.799Z,7.66
2023-04-20T01:39:34.300Z,7.62
2023-04-20T01:40:33.795Z,7.66
2023-04-20T01:41:34.469Z,7.61
2023-04-20T01:42:34.464Z,7.62
2023-04-20T01:43:34.018Z,7.60
2023-04-20T01:44:34.513Z,7.61
2023-04-20T01:45:34.474Z,7.66
2023-04-20T01:46:34.191Z,7.68
2023-04-20T01:47:34.511Z,7.71
2023-04-20T01:48:34.573Z,7.66
2023-04-20T01:49:33.742Z,7.73
2023-04-20T01:51:59.726Z,7.76
2023-04-20T01:52:59.631Z,7.74
2023-04-20T01:53:59.640Z,7.76
2023-04-20T01:54:59.637Z,7.76
2023-04-20T01:55:59.675Z,7.77
2023-04-20T01:56:59.676Z,7.84
2023-04-20T01:57:59.688Z,7.86
2023-04-20T01:58:59.706Z,7.88
2023-04-20T01:59:59.714Z,7.87
2023-04-20T02:00:59.753Z,7.92
2023-04-20T02:01:59.871Z,7.96
2023-04-20T02:02:59.892Z,7.98
2023-04-20T02:03:59.674Z,7.96
2023-04-20T02:04:59.604Z,7.95
2023-04-20T02:05:59.677Z,7.95
2023-04-20T02:06:59.809Z,7.95
2023-04-20T02:07:59.817Z,7.95
2023-04-20T02:08:59.829Z,7.98
2023-04-20T02:09:59.573Z,7.94
2023-04-20T02:10:59.850Z,7.95
2023-04-20T02:11:59.583Z,7.98
2023-04-20T02:12:59.549Z,7.94
2023-04-20T02:13:59.893Z,7.92
2023-04-20T02:14:59.896Z,7.91
2023-04-20T02:15:59.606Z,7.88
2023-04-20T02:16:59.605Z,7.88
2023-04-20T02:17:59.532Z,7.87
2023-04-20T02:18:59.561Z,7.91
2023-04-20T02:19:59.997Z,7.87
2023-04-20T02:20:59.977Z,7.86
2023-04-20T02:21:59.544Z,7.87
2023-04-20T02:23:00.000Z,7.81
2023-04-20T02:23:59.471Z,7.83
2023-04-20T02:24:59.490Z,7.78
2023-04-20T02:26:00.053Z,7.78
2023-04-20T02:26:59.490Z,7.80
2023-04-20T02:27:59.467Z,7.77
2023-04-20T02:28:59.519Z,7.76
2023-04-20T02:29:59.560Z,7.69
2023-04-20T02:30:59.650Z,7.71
2023-04-20T02:31:59.534Z,7.62
2023-04-20T02:32:59.362Z,7.60
2023-04-20T02:33:59.378Z,7.60
2023-04-20T02:34:59.402Z,7.58
2023-04-20T02:35:59.428Z,7.58
2023-04-20T02:36:59.537Z,7.62
2023-04-20T02:37:59.538Z,7.58
2023-04-20T02:38:59.358Z,7.60
2023-04-20T02:39:59.580Z,7.60
2023-04-20T02:40:59.755Z,7.58
2023-04-20T02:41:59.381Z,7.57
2023-04-20T02:42:59.274Z,7.57
2023-04-20T02:43:59.281Z,7.55
2023-04-20T02:44:59.288Z,7.54
2023-04-20T02:45:59.325Z,7.57
2023-04-20T02:46:59.246Z,7.55
2023-04-20T02:47:59.299Z,7.52
2023-04-20T02:48:59.274Z,7.47
2023-04-20T02:49:59.282Z,7.47
2023-04-20T02:50:59.298Z,7.49
2023-04-20T02:51:59.312Z,7.49
2023-04-20T02:52:59.312Z,7.54
2023-04-20T02:53:59.268Z,7.52
2023-04-20T02:54:59.338Z,7.54
2023-04-20T02:55:59.352Z,7.55
2023-04-20T02:56:59.191Z,7.43
2023-04-20T02:57:59.377Z,7.43
2023-04-20T02:58:59.313Z,7.44
2023-04-20T02:59:59.200Z,7.43
2023-04-20T03:00:59.413Z,7.42
2023-04-20T03:01:59.489Z,7.43
2023-04-20T03:02:59.295Z,7.42
2023-04-20T03:03:59.337Z,7.44
2023-04-20T03:04:59.249Z,7.43
2023-04-20T03:05:59.307Z,7.43
2023-04-20T03:06:59.190Z,7.34
2023-04-20T03:07:59.407Z,7.33
2023-04-20T03:08:59.430Z,7.34
2023-04-20T03:09:59.117Z,7.36
2023-04-20T03:10:59.199Z,7.34
2023-04-20T03:11:59.345Z,7.36
2023-04-20T03:12:59.161Z,7.33
2023-04-20T03:13:59.084Z,7.34
2023-04-20T03:14:59.082Z,7.36
2023-04-20T03:15:59.647Z,7.29
2023-04-20T03:16:59.628Z,7.29
2023-04-20T03:17:59.520Z,7.28
2023-04-20T03:18:59.673Z,7.34
2023-04-20T03:19:59.049Z,7.34
2023-04-20T03:20:59.686Z,7.34
2023-04-20T03:21:59.473Z,7.37
2023-04-20T03:22:59.029Z,7.31
2023-04-20T03:23:59.110Z,7.29
2023-04-20T03:24:59.087Z,7.29
2023-04-20T03:25:59.360Z,7.28
2023-04-20T03:27:00.479Z,7.29
2023-04-20T03:27:58.995Z,7.22
2023-04-20T03:28:58.980Z,7.25
2023-04-20T03:29:58.981Z,7.26
2023-04-20T03:30:59.005Z,7.28
2023-04-20T03:31:59.014Z,7.33
2023-04-20T03:32:59.067Z,7.31
2023-04-20T03:33:59.036Z,7.33
2023-04-20T03:34:59.069Z,7.33
2023-04-20T03:35:59.083Z,7.34
2023-04-20T03:36:58.925Z,7.33
2023-04-20T03:37:58.940Z,7.31
2023-04-20T03:38:58.929Z,7.29
2023-04-20T03:39:58.943Z,7.28
2023-04-20T03:40:58.911Z,7.28
2023-04-20T03:41:58.954Z,7.26
2023-04-20T03:42:58.972Z,7.25
2023-04-20T03:43:58.963Z,7.24
2023-04-20T03:44:58.977Z,7.22
2023-04-20T03:45:59.181Z,7.26
2023-04-20T03:46:59.199Z,7.26
2023-04-20T03:47:59.352Z,7.25
2023-04-20T03:48:59.109Z,7.21
2023-04-20T03:49:59.270Z,7.18
2023-04-20T03:50:59.151Z,7.18
2023-04-20T03:51:59.289Z,7.15
2023-04-20T03:52:58.823Z,7.11
2023-04-20T03:53:58.950Z,7.07
2023-04-20T03:54:59.251Z,7.07
2023-04-20T03:55:59.128Z,7.07
2023-04-20T03:56:59.364Z,7.07
2023-04-20T03:57:59.365Z,7.07
2023-04-20T03:58:59.400Z,7.08
2023-04-20T03:59:59.399Z,7.11
2023-04-20T04:00:59.407Z,7.04
2023-04-20T04:01:58.987Z,7.04
2023-04-20T04:02:59.186Z,7.04
2023-04-20T04:03:59.274Z,7.06
2023-04-20T04:04:59.540Z,7.04
2023-04-20T04:05:59.345Z,7.00
2023-04-20T04:06:58.813Z,6.96
2023-04-20T04:07:59.433Z,6.97
2023-04-20T04:08:58.724Z,7.00
2023-04-20T04:09:58.711Z,6.97
2023-04-20T04:10:59.320Z,6.96
2023-04-20T04:11:59.088Z,6.97
2023-04-20T04:12:58.986Z,6.97
2023-04-20T04:13:59.575Z,6.97
2023-04-20T04:14:58.858Z,6.97
2023-04-20T04:15:58.939Z,6.99
2023-04-20T04:16:58.831Z,6.97
2023-04-20T04:17:58.686Z,6.97
2023-04-20T04:18:58.687Z,6.97
2023-04-20T04:19:58.719Z,6.93
2023-04-20T04:20:58.830Z,6.93
2023-04-20T04:21:58.626Z,6.93
2023-04-20T04:22:58.870Z,6.93
2023-04-20T04:23:58.640Z,6.97
2023-04-20T04:24:58.648Z,6.93
2023-04-20T04:25:58.633Z,6.88
2023-04-20T04:26:58.656Z,6.92
2023-04-20T04:27:58.696Z,6.91
2023-04-20T04:28:58.773Z,6.93
2023-04-20T04:29:58.803Z,6.92
2023-04-20T04:30:58.872Z,6.92
2023-04-20T04:31:58.893Z,6.91
2023-04-20T04:32:58.590Z,6.85
2023-04-20T04:33:58.614Z,6.83
2023-04-20T04:34:59.042Z,6.86
2023-04-20T04:35:59.186Z,6.82
2023-04-20T04:36:58.510Z,6.81
2023-04-20T04:37:59.067Z,6.81
2023-04-20T04:38:59.058Z,6.81
2023-04-20T04:39:59.338Z,6.78
2023-04-20T04:40:59.285Z,6.75
2023-04-20T04:41:58.812Z,6.75
2023-04-20T04:42:58.520Z,6.82
2023-04-20T04:43:58.470Z,6.85
2023-04-20T04:44:59.135Z,6.85
2023-04-20T04:45:58.681Z,6.79
2023-04-20T04:46:59.295Z,6.82
2023-04-20T04:47:58.700Z,6.81
2023-04-20T04:48:58.946Z,6.85
2023-04-20T04:49:59.204Z,6.85
2023-04-20T04:50:59.345Z,6.82
2023-04-20T04:51:58.417Z,6.81
2023-04-20T04:52:58.484Z,6.78
2023-04-20T04:53:58.409Z,6.73
2023-04-20T04:54:58.416Z,6.71
2023-04-20T04:55:58.790Z,6.74
2023-04-20T04:56:58.490Z,6.74
2023-04-20T04:57:58.497Z,6.74
2023-04-20T04:58:58.471Z,6.73
2023-04-20T04:59:58.446Z,6.79
2023-04-20T05:00:58.406Z,6.70
2023-04-20T05:01:58.777Z,6.70
2023-04-20T05:02:59.001Z,6.70
2023-04-20T05:03:58.723Z,6.68
2023-04-20T05:04:58.866Z,6.68
2023-04-20T05:05:58.907Z,6.70
2023-04-20T05:06:59.794Z,6.70
2023-04-20T05:07:58.996Z,6.73
2023-04-20T05:08:58.405Z,6.73
2023-04-20T05:09:58.826Z,6.68
2023-04-20T05:10:58.940Z,6.71
2023-04-20T05:11:58.728Z,6.74
2023-04-20T05:12:59.136Z,6.71
2023-04-20T05:13:58.386Z,6.67
2023-04-20T05:14:59.196Z,6.65
2023-04-20T05:15:58.340Z,6.65
2023-04-20T05:16:58.368Z,6.64
2023-04-20T05:17:58.282Z,6.65
2023-04-20T05:18:58.286Z,6.65
2023-04-20T05:19:58.337Z,6.68
2023-04-20T05:20:58.253Z,6.65
2023-04-20T05:21:58.206Z,6.61
2023-04-20T05:22:58.491Z,6.65
2023-04-20T05:23:58.603Z,6.71
2023-04-20T05:24:58.339Z,6.73
2023-04-20T05:25:58.657Z,6.78
2023-04-20T05:26:58.177Z,6.81
2023-04-20T05:27:58.173Z,6.81
2023-04-20T05:28:58.332Z,6.89
2023-04-20T05:30:06.394Z,6.88
2023-04-20T05:30:58.246Z,6.92
2023-04-20T05:31:58.209Z,7.01
2023-04-20T05:32:58.138Z,7.03
2023-04-20T05:33:58.261Z,6.97
2023-04-20T05:34:58.303Z,6.97
2023-04-20T05:35:58.358Z,7.00
2023-04-20T05:36:58.395Z,6.96
2023-04-20T05:37:58.445Z,6.97
2023-04-20T05:38:58.493Z,7.01
2023-04-20T05:39:58.090Z,7.08
2023-04-20T05:40:58.604Z,7.18
2023-04-20T05:41:58.210Z,7.16
2023-04-20T05:42:58.459Z,7.19
2023-04-20T05:43:58.117Z,7.15
2023-04-20T05:44:58.080Z,7.10
2023-04-20T05:45:59.068Z,7.10
2023-04-20T05:46:58.900Z,7.07
2023-04-20T05:47:58.662Z,7.04
2023-04-20T05:48:58.023Z,7.04
2023-04-20T05:49:58.140Z,6.99
2023-04-20T05:50:58.832Z,7.04
2023-04-20T05:51:57.991Z,6.97
2023-04-20T05:52:58.416Z,7.00
2023-04-20T05:53:57.997Z,7.00
2023-04-20T05:54:57.999Z,7.01
2023-04-20T05:55:58.757Z,7.06
2023-04-20T05:56:58.056Z,7.06
2023-04-20T05:57:58.453Z,7.10
2023-04-20T05:58:58.015Z,7.08
2023-04-20T05:59:58.120Z,7.04
2023-04-20T06:00:58.035Z,7.06
2023-04-20T06:01:58.155Z,7.07
2023-04-20T06:02:58.198Z,7.03
2023-04-20T06:03:58.121Z,7.03
2023-04-20T06:04:57.997Z,7.06
2023-04-20T06:05:57.934Z,7.08
2023-04-20T06:06:57.906Z,7.13
2023-04-20T06:07:57.966Z,7.19
2023-04-20T06:08:57.917Z,7.19
2023-04-20T06:09:59.426Z,7.18
2023-04-20T06:10:57.904Z,7.19
2023-04-20T06:11:57.874Z,7.26
2023-04-20T06:12:57.991Z,7.31
2023-04-20T06:13:58.037Z,7.39
2023-04-20T06:14:58.058Z,7.42
2023-04-20T06:15:58.129Z,7.49
2023-04-20T06:16:58.090Z,7.44
2023-04-20T06:17:58.159Z,7.40
2023-04-20T06:18:57.812Z,7.44
2023-04-20T06:19:58.119Z,7.50
2023-04-20T06:20:58.166Z,7.50
2023-04-20T06:22:00.690Z,7.49
2023-04-20T06:22:57.793Z,7.43
2023-04-20T06:23:57.800Z,7.42
2023-04-20T06:24:57.786Z,7.42
2023-04-20T06:25:57.805Z,7.44
2023-04-20T06:26:58.318Z,7.39
2023-04-20T06:27:58.326Z,7.40
2023-04-20T06:28:57.733Z,7.44
2023-04-20T06:29:57.748Z,7.39
2023-04-20T06:30:58.380Z,7.34
2023-04-20T06:31:57.711Z,7.34
2023-04-20T06:32:57.737Z,7.40
2023-04-20T06:33:57.699Z,7.42
2023-04-20T06:34:57.724Z,7.43
2023-04-20T06:35:57.705Z,7.39
2023-04-20T06:36:57.715Z,7.39
2023-04-20T06:37:57.872Z,7.44
2023-04-20T06:38:57.680Z,7.50
2023-04-20T06:39:57.672Z,7.55
2023-04-20T06:40:57.691Z,7.62
2023-04-20T06:41:57.693Z,7.68
2023-04-20T06:42:57.716Z,7.68
2023-04-20T06:43:57.626Z,7.73
2023-04-20T06:44:57.641Z,7.74
2023-04-20T06:45:57.608Z,7.71
2023-04-20T06:46:57.621Z,7.76
2023-04-20T06:47:57.634Z,7.84
2023-04-20T06:48:57.606Z,7.80
2023-04-20T06:49:57.672Z,7.74
2023-04-20T06:50:57.678Z,7.76
2023-04-20T06:51:57.572Z,7.68
2023-04-20T06:52:57.558Z,7.64
2023-04-20T06:53:57.554Z,7.62
2023-04-20T06:54:57.576Z,7.60
2023-04-20T06:55:57.548Z,7.62
2023-04-20T06:56:57.542Z,7.62
2023-04-20T06:57:57.529Z,7.57
2023-04-20T06:58:58.078Z,7.54
2023-04-20T06:59:57.533Z,7.54
2023-04-20T07:00:57.505Z,7.52
2023-04-20T07:01:57.634Z,7.50
2023-04-20T07:02:57.560Z,7.44
2023-04-20T07:03:57.694Z,7.43
2023-04-20T07:04:57.676Z,7.40
2023-04-20T07:05:57.475Z,7.42
2023-04-20T07:06:57.488Z,7.39
2023-04-20T07:07:57.465Z,7.34
2023-04-20T07:08:57.460Z,7.34
2023-04-20T07:09:57.461Z,7.28
2023-04-20T07:10:57.433Z,7.26
2023-04-20T07:11:57.433Z,7.24
2023-04-20T07:12:57.428Z,7.21
2023-04-20T07:13:57.424Z,7.21
2023-04-20T07:14:57.698Z,7.16
2023-04-20T07:15:57.452Z,7.16
2023-04-20T07:16:57.399Z,7.19
2023-04-20T07:17:57.454Z,7.10
2023-04-20T07:18:57.396Z,7.08
2023-04-20T07:19:57.492Z,7.06
2023-04-20T07:20:57.373Z,7.03
2023-04-20T07:21:57.386Z,7.03
2023-04-20T07:22:57.352Z,7.00
2023-04-20T07:23:57.345Z,6.86
2023-04-20T07:24:57.355Z,6.78
2023-04-20T07:25:57.347Z,6.73
2023-04-20T07:26:57.348Z,6.70
2023-04-20T07:27:57.330Z,6.64
2023-04-20T07:28:57.328Z,6.61
2023-04-20T07:29:57.339Z,6.57
2023-04-20T07:30:57.309Z,6.61
2023-04-20T07:31:57.325Z,6.63
2023-04-20T07:32:57.316Z,6.61
2023-04-20T07:33:57.286Z,6.61
2023-04-20T07:34:57.462Z,6.61
2023-04-20T07:35:57.300Z,6.63
2023-04-20T07:36:57.288Z,6.68
2023-04-20T07:37:57.269Z,6.75
2023-04-20T07:38:57.245Z,6.79
2023-04-20T07:39:57.260Z,6.82
2023-04-20T07:40:57.231Z,6.88
2023-04-20T07:41:57.250Z,6.88
2023-04-20T07:42:57.228Z,6.89
2023-04-20T07:43:57.233Z,6.93
2023-04-20T07:44:57.275Z,6.97
2023-04-20T07:45:57.252Z,7.07
2023-04-20T07:46:57.270Z,7.13
2023-04-20T07:47:57.316Z,7.16
2023-04-20T07:48:57.191Z,7.26
2023-04-20T07:49:57.481Z,7.36
2023-04-20T07:50:57.466Z,7.49
2023-04-20T07:52:09.383Z,7.55
2023-04-20T07:52:57.161Z,7.55
2023-04-20T07:53:57.158Z,7.57
2023-04-20T07:54:57.157Z,7.69
2023-04-20T07:55:57.145Z,7.76
2023-04-20T07:56:57.130Z,7.91
2023-04-20T07:57:57.147Z,8.01
2023-04-20T07:58:57.112Z,7.96
2023-04-20T07:59:57.174Z,7.95
2023-04-20T08:00:57.093Z,7.95
2023-04-20T08:01:57.129Z,8.01
2023-04-20T08:02:57.274Z,8.09
2023-04-20T08:03:57.386Z,8.17
2023-04-20T08:04:57.322Z,8.09
2023-04-20T08:05:57.153Z,8.13
2023-04-20T08:06:57.041Z,8.21
2023-04-20T08:07:57.057Z,8.21
2023-04-20T08:08:57.038Z,8.14
2023-04-20T08:09:57.047Z,8.14
2023-04-20T08:10:57.028Z,8.20
2023-04-20T08:11:57.037Z,8.20
2023-04-20T08:12:57.014Z,8.20
2023-04-20T08:13:58.430Z,8.29
2023-04-20T08:14:57.025Z,8.31
2023-04-20T08:15:57.089Z,8.35
2023-04-20T08:16:56.982Z,8.42
2023-04-20T08:17:57.034Z,8.57
2023-04-20T08:18:57.868Z,8.56
2023-04-20T08:19:57.441Z,8.52
2023-04-20T08:20:56.953Z,8.50
2023-04-20T08:21:57.013Z,8.59
2023-04-20T08:22:56.936Z,8.56
2023-04-20T08:23:56.942Z,8.56
2023-04-20T08:24:57.231Z,8.46
2023-04-20T08:25:56.981Z,8.38
2023-04-20T08:26:56.927Z,8.37
2023-04-20T08:27:56.919Z,8.29
2023-04-20T08:28:56.914Z,8.23
2023-04-20T08:29:56.987Z,8.17
2023-04-20T08:30:56.920Z,8.19
2023-04-20T08:31:56.989Z,8.28
2023-04-20T08:32:56.914Z,8.29
2023-04-20T08:33:56.862Z,8.41
2023-04-20T08:34:56.869Z,8.55
2023-04-20T08:35:56.869Z,8.71
2023-04-20T08:36:56.839Z,8.68
2023-04-20T08:37:56.840Z,8.68
2023-04-20T08:38:56.831Z,8.74
2023-04-20T08:39:56.839Z,8.67
2023-04-20T08:40:56.805Z,8.72
2023-04-20T08:41:57.208Z,8.71
2023-04-20T08:42:56.802Z,8.68
2023-04-20T08:43:56.803Z,8.56
2023-04-20T08:44:56.808Z,8.55
2023-04-20T08:45:56.791Z,8.59
2023-04-20T08:46:56.905Z,8.44
2023-04-20T08:47:56.803Z,8.39
2023-04-20T08:48:57.252Z,8.28
2023-04-20T08:49:56.764Z,8.21
2023-04-20T08:50:56.860Z,8.21
2023-04-20T08:51:56.750Z,8.23
2023-04-20T08:52:56.851Z,8.20
2023-04-20T08:53:56.732Z,8.21
2023-04-20T08:54:57.985Z,8.16
2023-04-20T08:55:56.719Z,8.06
2023-04-20T08:56:56.702Z,8.06
2023-04-20T08:57:56.740Z,8.05
2023-04-20T08:58:57.115Z,8.14
2023-04-20T08:59:56.731Z,8.21
2023-04-20T09:00:56.678Z,8.31
2023-04-20T09:01:57.189Z,8.39
2023-04-20T09:02:57.471Z,8.46
2023-04-20T09:03:56.880Z,8.50
2023-04-20T09:04:56.820Z,8.56
2023-04-20T09:05:56.641Z,8.60
2023-04-20T09:06:56.832Z,8.70
2023-04-20T09:07:56.776Z,8.80
2023-04-20T09:08:56.634Z,8.92
2023-04-20T09:09:56.624Z,9.04
2023-04-20T09:10:56.598Z,9.14
2023-04-20T09:11:56.639Z,9.22
2023-04-20T09:12:56.589Z,9.40
2023-04-20T09:13:56.580Z,9.59
2023-04-20T09:14:57.231Z,9.69
2023-04-20T09:15:56.630Z,9.78
2023-04-20T09:16:56.626Z,9.77
2023-04-20T09:17:56.592Z,9.85
2023-04-20T09:18:57.278Z,9.94
2023-04-20T09:19:56.583Z,10.01
2023-04-20T09:20:56.556Z,9.94
2023-04-20T09:21:56.538Z,9.88
2023-04-20T09:22:57.402Z,9.94
2023-04-20T09:23:57.534Z,10.01
2023-04-20T09:24:56.511Z,10.02
2023-04-20T09:25:56.515Z,10.03
2023-04-20T09:26:56.490Z,10.03
2023-04-20T09:27:56.518Z,10.05
2023-04-20T09:28:56.476Z,9.98
2023-04-20T09:29:56.499Z,9.90
2023-04-20T09:30:56.465Z,9.80
2023-04-20T09:31:56.514Z,9.69
2023-04-20T09:32:56.469Z,9.65
2023-04-20T09:33:56.449Z,9.70
2023-04-20T09:34:57.292Z,9.75
2023-04-20T09:35:56.475Z,9.70
2023-04-20T09:36:57.346Z,9.69
2023-04-20T09:37:57.250Z,9.88
2023-04-20T09:38:57.398Z,10.02
2023-04-20T09:39:56.456Z,10.28
2023-04-20T09:40:56.385Z,10.41
2023-04-20T09:41:56.380Z,10.49
2023-04-20T09:42:56.433Z,10.62
2023-04-20T09:43:56.399Z,10.61
2023-04-20T09:44:56.414Z,10.58
2023-04-20T09:45:56.380Z,10.61
2023-04-20T09:46:56.636Z,10.58
2023-04-20T09:47:56.674Z,10.55
2023-04-20T09:48:56.638Z,10.58
2023-04-20T09:49:57.331Z,10.87
2023-04-20T09:50:56.316Z,11.03
2023-04-20T09:51:56.455Z,11.08
2023-04-20T09:52:56.297Z,11.34
2023-04-20T09:53:56.897Z,11.69
2023-04-20T09:54:56.309Z,11.67
2023-04-20T09:55:57.149Z,11.74
2023-04-20T09:56:57.103Z,11.61
2023-04-20T09:57:56.286Z,11.54
2023-04-20T09:58:56.269Z,11.49
2023-04-20T09:59:56.282Z,11.43
2023-04-20T10:00:56.277Z,11.34
2023-04-20T10:01:56.296Z,11.30
2023-04-20T10:02:56.339Z,11.16
2023-04-20T10:03:57.803Z,11.11
2023-04-20T10:04:56.259Z,11.03
2023-04-20T10:05:56.223Z,10.98
2023-04-20T10:06:56.207Z,11.01
2023-04-20T10:07:56.247Z,11.12
2023-04-20T10:08:56.190Z,11.36
2023-04-20T10:09:56.211Z,11.46
2023-04-20T10:10:56.171Z,11.54
2023-04-20T10:11:58.340Z,11.58
2023-04-20T10:12:56.176Z,11.61
2023-04-20T10:13:56.390Z,11.46
2023-04-20T10:14:56.275Z,11.48
2023-04-20T10:15:56.154Z,11.66
2023-04-20T10:16:56.175Z,11.84
2023-04-20T10:17:56.227Z,11.84
2023-04-20T10:18:56.180Z,11.87
2023-04-20T10:19:56.146Z,11.85
2023-04-20T10:20:56.097Z,11.88
2023-04-20T10:21:56.452Z,11.85
2023-04-20T10:22:56.093Z,11.96
2023-04-20T10:23:56.091Z,12.07
2023-04-20T10:24:56.470Z,12.05
2023-04-20T10:25:56.485Z,11.82
2023-04-20T10:26:56.074Z,11.69
2023-04-20T10:27:56.069Z,11.62
2023-04-20T10:28:56.052Z,11.62
2023-04-20T10:29:56.065Z,11.52
2023-04-20T10:30:56.048Z,11.37
2023-04-20T10:31:56.062Z,11.38
2023-04-20T10:32:56.083Z,11.36
2023-04-20T10:33:56.024Z,11.37
2023-04-20T10:34:56.537Z,11.55
2023-04-20T10:35:56.014Z,11.73
2023-04-20T10:36:55.989Z,11.82
2023-04-20T10:37:55.989Z,11.77
2023-04-20T10:38:55.980Z,11.88
2023-04-20T10:39:55.990Z,11.99
2023-04-20T10:40:55.959Z,12.17
2023-04-20T10:41:56.405Z,12.30
2023-04-20T10:42:55.954Z,12.53
2023-04-20T10:43:55.957Z,12.77
2023-04-20T10:44:55.964Z,13.11
2023-04-20T10:45:55.974Z,13.29
2023-04-20T10:46:56.016Z,13.40
2023-04-20T10:47:55.945Z,13.64
2023-04-20T10:48:55.900Z,13.53
2023-04-20T10:49:56.024Z,13.24
2023-04-20T10:50:56.883Z,13.40
2023-04-20T10:51:56.041Z,13.53
2023-04-20T10:52:56.051Z,13.73
2023-04-20T10:53:56.056Z,13.83
2023-04-20T10:54:55.875Z,13.91
2023-04-20T10:55:55.857Z,13.68
2023-04-20T10:56:56.310Z,13.36
2023-04-20T10:57:56.310Z,13.06
2023-04-20T10:58:56.310Z,12.80
2023-04-20T10:59:56.317Z,12.80
2023-04-20T11:00:56.312Z,12.79
2023-04-20T11:01:55.964Z,12.76
2023-04-20T11:02:55.892Z,12.77
2023-04-20T11:03:56.212Z,13.13
2023-04-20T11:04:55.893Z,13.67
2023-04-20T11:05:55.844Z,14.18
2023-04-20T11:06:55.800Z,14.63
2023-04-20T11:07:55.789Z,14.34
2023-04-20T11:08:56.842Z,14.12
2023-04-20T11:09:55.791Z,13.90
2023-04-20T11:10:55.747Z,13.67
2023-04-20T11:11:55.744Z,13.58
2023-04-20T11:12:55.750Z,13.42
2023-04-20T11:13:55.785Z,13.23
2023-04-20T11:14:55.722Z,13.05
2023-04-20T11:15:55.737Z,12.88
2023-04-20T11:16:55.753Z,12.76
2023-04-20T11:17:55.729Z,13.19
2023-04-20T11:18:55.707Z,13.45
2023-04-20T11:19:55.694Z,13.32
2023-04-20T11:20:55.672Z,12.96
2023-04-20T11:21:55.688Z,12.99
2023-04-20T11:22:55.652Z,13.05
2023-04-20T11:23:55.653Z,12.95
2023-04-20T11:24:55.677Z,12.79
2023-04-20T11:25:55.678Z,12.68
2023-04-20T11:26:55.638Z,12.72
2023-04-20T11:27:55.657Z,12.73
2023-04-20T11:28:56.422Z,12.76
2023-04-20T11:29:55.622Z,12.81
2023-04-20T11:30:55.605Z,12.71
2023-04-20T11:31:55.637Z,12.99
2023-04-20T11:32:55.671Z,13.64
2023-04-20T11:33:55.575Z,14.28
2023-04-20T11:35:03.320Z,14.67
2023-04-20T11:35:55.564Z,15.12
2023-04-20T11:36:55.555Z,15.33
2023-04-20T11:37:55.557Z,15.30
2023-04-20T11:38:55.545Z,15.10
2023-04-20T11:39:55.552Z,15.41
2023-04-20T11:40:55.521Z,15.58
2023-04-20T11:41:55.525Z,15.38
2023-04-20T11:42:55.499Z,14.87
2023-04-20T11:43:55.503Z,14.73
2023-04-20T11:44:55.519Z,14.69
2023-04-20T11:45:55.504Z,14.45
2023-04-20T11:46:55.491Z,14.23
2023-04-20T11:47:55.532Z,14.11
2023-04-20T11:48:55.470Z,13.97
2023-04-20T11:49:55.487Z,14.31
2023-04-20T11:50:55.621Z,14.37
2023-04-20T11:51:55.450Z,14.36
2023-04-20T11:52:55.635Z,14.27
2023-04-20T11:53:55.423Z,14.69
2023-04-20T11:54:55.474Z,15.03
2023-04-20T11:55:55.414Z,15.58
2023-04-20T11:56:55.412Z,16.18
2023-04-20T11:57:55.863Z,16.49
2023-04-20T11:58:55.455Z,16.57
2023-04-20T11:59:55.419Z,16.83
2023-04-20T12:00:55.374Z,16.84
2023-04-20T12:01:55.385Z,16.43
2023-04-20T12:02:55.556Z,16.16
2023-04-20T12:03:55.585Z,15.84
2023-04-20T12:04:55.683Z,15.93
2023-04-20T12:05:55.536Z,15.91
2023-04-20T12:06:55.397Z,15.76
2023-04-20T12:07:55.377Z,15.50
2023-04-20T12:08:55.386Z,15.45
2023-04-20T12:09:55.358Z,14.99
2023-04-20T12:10:57.331Z,15.03
2023-04-20T12:11:55.422Z,15.07
2023-04-20T12:12:55.294Z,14.89
2023-04-20T12:13:55.281Z,15.07
2023-04-20T12:14:55.290Z,15.23
2023-04-20T12:15:55.332Z,15.14
2023-04-20T12:16:56.827Z,14.92
2023-04-20T12:17:55.405Z,14.69
2023-04-20T12:18:55.499Z,14.30
2023-04-20T12:19:55.344Z,14.21
2023-04-20T12:20:55.261Z,14.21
2023-04-20T12:21:55.255Z,14.28
2023-04-20T12:22:57.215Z,14.27
2023-04-20T12:23:55.342Z,14.21
2023-04-20T12:24:55.303Z,14.22
2023-04-20T12:25:55.268Z,14.22
2023-04-20T12:26:55.280Z,14.45
2023-04-20T12:27:55.178Z,14.92
2023-04-20T12:28:55.184Z,15.62
2023-04-20T12:29:55.369Z,16.02
2023-04-20T12:30:55.181Z,16.36
2023-04-20T12:31:55.304Z,16.47
2023-04-20T12:32:55.178Z,16.29
2023-04-20T12:33:55.383Z,16.82
2023-04-20T12:34:55.208Z,16.94
2023-04-20T12:35:55.120Z,16.65
2023-04-20T12:36:55.132Z,16.76
2023-04-20T12:37:55.100Z,16.79
2023-04-20T12:38:55.176Z,17.27
2023-04-20T12:39:55.095Z,17.46
2023-04-20T12:40:55.094Z,17.62
2023-04-20T12:41:55.069Z,17.53
2023-04-20T12:42:55.089Z,17.63
2023-04-20T12:43:55.087Z,17.75
2023-04-20T12:44:55.063Z,17.99
2023-04-20T12:45:55.057Z,17.65
2023-04-20T12:46:55.079Z,17.90
2023-04-20T12:47:56.731Z,17.12
2023-04-20T12:48:55.150Z,16.22
2023-04-20T12:49:55.280Z,15.22
2023-04-20T12:50:55.215Z,14.69
2023-04-20T12:51:55.026Z,14.74
2023-04-20T12:52:54.998Z,15.07
2023-04-20T12:53:54.998Z,15.77
2023-04-20T12:54:55.330Z,16.18
2023-04-20T12:56:00.752Z,16.00
2023-04-20T12:56:54.970Z,16.03
2023-04-20T12:57:54.956Z,15.68
2023-04-20T12:58:54.971Z,15.36
2023-04-20T12:59:54.944Z,14.87
2023-04-20T13:00:54.990Z,14.71
2023-04-20T13:01:54.947Z,14.73
2023-04-20T13:02:55.504Z,14.71
2023-04-20T13:03:55.043Z,14.63
2023-04-20T13:04:55.058Z,14.51
2023-04-20T13:05:55.382Z,14.33
2023-04-20T13:06:55.416Z,14.16
2023-04-20T13:07:55.421Z,14.03
2023-04-20T13:08:54.912Z,13.96
2023-04-20T13:09:54.941Z,13.85
2023-04-20T13:10:54.902Z,14.11
2023-04-20T13:11:54.862Z,14.26
2023-04-20T13:12:54.854Z,14.64